Latest Weather Observations for Birdsville

IDQ60801

Issued at 10:02 pm EST Tuesday 27 January 2015 (issued every 30 minutes, with the page automatically refreshed every 10 minutes)

About weather observations | Map of weather stations | Latest weather observations for QLD | Other Formats
Station Details ID: 038026 Name: BIRDSVILLE AIRPORT Lat: -25.90 Lon: 139.35 Height: 46.6 m
Data from the previous 72 hours. | See also: Recent months at Birdsville
Date/Time
EST
Temp
°C
App
Temp
°C
Dew
Point
Rel
Hum
%
Delta-T
°C
Wind Press
QNH
hPa
Press
MSL
hPa
Rain
since 9 am
mm
Dir
 
Spd
km/h
Gust
km/h
Spd
kts
Gust
kts
27/10:00pm 26.4 19.6 0.9 19 12.1 S 26 33 14 18 1009.1 - 0.0
27/09:30pm 27.1 20.0 1.5 19 12.3 S 28 41 15 22 1008.7 - 0.0
27/09:00pm 27.5 21.6 1.8 19 12.5 S 22 28 12 15 1008.6 1008.3 0.0
27/08:30pm 28.1 22.4 0.8 17 13.1 S 20 26 11 14 1008.2 - 0.0
27/08:00pm 28.8 22.6 -0.4 15 13.8 S 22 30 12 16 1007.8 - 0.0
27/07:30pm 29.7 22.7 -0.6 14 14.3 S 26 33 14 18 1007.4 - 0.0
27/07:00pm 30.7 23.0 0.2 14 14.7 S 30 37 16 20 1007.1 - 0.0
27/06:30pm 31.4 23.7 -0.3 13 15.2 S 30 43 16 23 1006.8 - 0.0
27/06:00pm 31.6 23.5 -0.1 13 15.3 S 32 41 17 22 1006.7 1006.4 0.0
27/05:30pm 31.9 25.0 0.1 13 15.4 S 26 35 14 19 1006.5 - 0.0
27/05:00pm 32.3 24.1 -0.7 12 15.8 S 32 43 17 23 1006.5 - 0.0
27/04:30pm 32.8 25.1 -0.3 12 16.1 S 30 43 16 23 1006.5 - 0.0
27/04:00pm 32.6 24.3 -1.7 11 16.2 S 32 43 17 23 1006.7 - 0.0
27/03:30pm 32.6 25.2 -0.5 12 16.0 S 28 46 15 25 1007.0 - 0.0
27/03:00pm 32.5 24.9 0.6 13 15.7 S 30 41 16 22 1007.3 1007.0 0.0
27/02:30pm 32.5 24.2 -0.5 12 15.9 S 33 43 18 23 1007.8 - 0.0
27/02:00pm 31.6 23.9 -0.1 13 15.3 S 30 39 16 21 1008.2 - 0.0
27/01:38pm 31.1 23.0 -0.5 13 15.1 SSE 32 43 17 23 1008.5 - 0.0
27/01:30pm 31.9 22.9 0.1 13 15.4 SSW 37 43 20 23 1008.6 - 0.0
27/01:00pm 31.8 25.8 1.0 14 15.2 S 22 41 12 22 1009.1 - 0.0
27/12:30pm 31.1 24.3 0.5 14 14.9 S 26 41 14 22 1009.5 - 0.0
27/12:00pm 30.1 22.9 0.6 15 14.3 SSE 28 43 15 23 1009.9 1009.5 0.0
27/11:30am 29.9 23.1 0.5 15 14.2 S 26 33 14 18 1010.3 - 0.0
27/11:00am 29.5 23.3 1.9 17 13.6 S 24 33 13 18 1010.5 - 0.0
27/10:30am 29.1 22.8 1.6 17 13.5 SSE 24 32 13 17 1010.6 - 0.0
27/10:00am 28.3 22.2 2.5 19 12.7 SE 24 33 13 18 1010.8 - 0.0
27/09:30am 28.1 21.9 2.3 19 12.7 SE 24 33 13 18 1010.9 - 0.0
27/09:00am 26.4 19.8 2.3 21 11.7 SE 26 33 14 18 1010.8 1010.5 0.0
27/08:30am 25.6 20.0 3.5 24 10.9 SSE 22 28 12 15 1010.7 - 0.0
27/08:00am 24.1 19.6 4.0 27 9.9 SSE 17 22 9 12 1010.7 - 0.0
27/07:30am 22.7 18.2 4.2 30 9.1 SSE 17 22 9 12 1010.2 - 0.0
27/07:00am 21.9 17.5 4.5 32 8.5 S 17 22 9 12 1010.0 - 0.0
27/06:30am 21.7 17.2 4.3 32 8.5 S 17 20 9 11 1009.7 - 0.0
27/06:00am 21.7 17.2 4.3 32 8.5 S 17 20 9 11 1009.1 1008.8 0.0
27/05:30am 21.9 17.7 4.0 31 8.7 SSE 15 20 8 11 1009.0 - 0.0
27/05:00am 21.6 17.9 4.2 32 8.5 SSE 13 17 7 9 1008.7 - 0.0
27/04:30am 21.6 17.9 4.2 32 8.5 SSE 13 17 7 9 1008.4 - 0.0
27/04:00am 21.9 17.7 4.0 31 8.7 SSE 15 19 8 10 1008.2 - 0.0
27/03:30am 22.4 18.2 4.0 30 9.0 SSE 15 19 8 10 1008.3 - 0.0
27/03:00am 23.1 19.0 4.1 29 9.3 S 15 19 8 10 1008.4 1008.1 0.0
27/02:30am 23.8 19.7 4.2 28 9.7 SSE 15 20 8 11 1008.3 - 0.0
27/02:00am 24.3 19.4 4.1 27 10.0 SSE 19 24 10 13 1008.5 - 0.0
27/01:30am 24.6 19.4 3.8 26 10.3 SSE 20 26 11 14 1009.2 - 0.0
27/01:00am 25.1 19.5 3.7 25 10.6 S 22 30 12 16 1009.6 - 0.0
27/12:30am 25.5 19.9 3.5 24 10.9 S 22 30 12 16 1009.9 - 0.0
27/12:00am 26.1 20.1 3.4 23 11.2 S 24 32 13 17 1010.1 1009.8 0.0
 
Date/Time
EST
Temp
°C
App
Temp
°C
Dew
Point
Rel
Hum
%
Delta-T
°C
Wind Press
QNH
hPa
Press
MSL
hPa
Rain
since 9 am
mm
Dir
 
Spd
km/h
Gust
km/h
Spd
kts
Gust
kts
26/11:30pm 26.6 20.7 3.8 23 11.4 S 24 32 13 17 1010.2 - 0.0
26/11:00pm 27.3 21.4 3.7 22 11.8 S 24 30 13 16 1010.0 - 0.0
26/10:30pm 27.6 22.4 3.3 21 12.1 S 20 24 11 13 1009.8 - 0.0
26/10:00pm 28.4 22.4 3.3 20 12.6 S 24 28 13 15 1009.5 - 0.0
26/09:30pm 29.2 23.6 3.2 19 13.1 S 22 28 12 15 1009.3 - 0.0
26/09:00pm 29.9 23.7 2.2 17 13.8 S 24 32 13 17 1009.0 1008.7 0.0
26/08:30pm 30.6 24.5 2.8 17 14.0 S 24 33 13 18 1008.7 - 0.0
26/08:00pm 31.2 25.3 1.5 15 14.7 S 22 30 12 16 1008.5 - 0.0
26/07:30pm 32.1 25.4 1.3 14 15.3 S 26 32 14 17 1008.0 - 0.0
26/07:00pm 33.1 26.3 1.0 13 15.9 S 26 35 14 19 1007.7 - 0.0
26/06:30pm 33.9 27.2 1.6 13 16.3 S 26 35 14 19 1007.2 - 0.0
26/06:00pm 34.3 27.3 1.9 13 16.5 S 28 37 15 20 1007.0 1006.7 0.0
26/05:30pm 35.1 28.8 1.5 12 17.0 S 24 35 13 19 1006.6 - 0.0
26/05:00pm 35.2 28.5 1.5 12 17.1 S 26 43 14 23 1006.5 - 0.0
26/04:30pm 35.8 29.8 3.1 13 17.1 SSW 24 30 13 16 1006.8 - 0.0
26/04:00pm 35.4 29.3 2.8 13 16.9 SSE 24 33 13 18 1007.0 - 0.0
26/03:30pm 34.8 29.9 2.3 13 16.7 S 17 35 9 19 1007.1 - 0.0
26/03:00pm 35.5 29.0 2.9 13 17.0 S 26 35 14 19 1007.2 1006.9 0.0
26/02:30pm 34.7 29.5 2.3 13 16.6 SSE 19 26 10 14 1007.6 - 0.0
26/02:00pm 35.0 30.9 2.5 13 16.7 SW 13 19 7 10 1008.0 - 0.0
26/01:30pm 34.3 29.0 1.9 13 16.5 SSW 19 24 10 13 1008.3 - 0.0
26/01:00pm 33.9 30.8 1.6 13 16.3 S 7 13 4 7 1008.6 - 0.0
26/12:30pm 32.7 29.7 1.7 14 15.5 WSW 7 17 4 9 1009.1 - 0.0
26/12:00pm 32.2 28.5 2.3 15 15.1 NE 11 19 6 10 1009.2 1008.9 0.0
26/11:30am 31.3 28.2 3.4 17 14.3 S 9 19 5 10 1009.8 - 0.0
26/11:00am 31.2 28.3 4.9 19 13.8 ESE 9 15 5 8 1010.2 - 0.0
26/10:30am 29.8 27.1 5.8 22 12.7 SSE 9 19 5 10 1010.4 - 0.0
26/10:00am 28.7 25.7 6.1 24 11.9 S 11 17 6 9 1010.7 - 0.0
26/09:30am 27.3 23.5 5.6 25 11.2 S 15 20 8 11 1010.6 - 0.0
26/09:00am 26.7 23.0 6.2 27 10.7 SSE 15 19 8 10 1010.5 1010.2 0.0
26/08:30am 25.5 21.0 6.2 29 10.0 SSE 19 20 10 11 1010.2 - 0.0
26/08:00am 24.3 19.5 5.6 30 9.5 SSW 20 26 11 14 1010.2 - 0.0
26/07:30am 22.9 17.7 5.3 32 8.8 SSW 22 26 12 14 1009.8 - 0.0
26/07:00am 21.5 16.8 5.0 34 8.1 SSW 19 24 10 13 1009.5 - 0.0
26/06:30am 20.4 16.5 5.2 37 7.5 SSW 15 22 8 12 1009.1 - 0.0
26/06:00am 19.9 16.4 5.5 39 7.1 SSW 13 17 7 9 1009.2 1008.9 0.0
26/05:30am 19.4 16.0 5.8 41 6.7 SSW 13 15 7 8 1009.4 - 0.0
26/05:00am 19.9 16.8 5.5 39 7.1 SW 11 13 6 7 1009.3 - 0.0
26/04:30am 20.2 16.7 5.4 38 7.3 SW 13 15 7 8 1009.1 - 0.0
26/04:00am 20.8 17.2 4.8 35 7.8 SW 13 15 7 8 1008.8 - 0.0
26/03:30am 21.4 17.0 4.9 34 8.1 SW 17 17 9 9 1008.8 - 0.0
26/03:00am 21.8 18.1 4.4 32 8.5 SW 13 15 7 8 1008.9 1008.6 0.0
26/02:30am 21.9 18.1 4.0 31 8.7 SW 13 15 7 8 1009.0 - 0.0
26/02:00am 22.2 18.3 3.3 29 9.1 SSW 13 15 7 8 1009.2 - 0.0
26/01:30am 22.3 18.6 2.4 27 9.4 SSW 11 13 6 7 1009.4 - 0.0
26/01:00am 23.4 18.9 2.3 25 10.0 SW 15 17 8 9 1009.5 - 0.0
26/12:30am 24.0 19.8 1.6 23 10.6 SW 13 17 7 9 1009.8 - 0.0
26/12:00am 24.5 19.4 0.8 21 11.1 SW 17 17 9 9 1010.0 1009.7 0.0
 
Date/Time
EST
Temp
°C
App
Temp
°C
Dew
Point
Rel
Hum
%
Delta-T
°C
Wind Press
QNH
hPa
Press
MSL
hPa
Rain
since 9 am
mm
Dir
 
Spd
km/h
Gust
km/h
Spd
kts
Gust
kts
25/11:30pm 25.1 20.4 0.6 20 11.4 SW 15 17 8 9 1010.0 - 0.0
25/11:00pm 26.1 20.9 0.0 18 12.1 SW 17 19 9 10 1009.6 - 0.0
25/10:30pm 27.2 22.3 2.3 20 12.2 SW 17 24 9 13 1009.1 - 0.0
25/10:00pm 27.8 23.4 2.8 20 12.4 SW 15 17 8 9 1008.7 - 0.0
25/09:30pm 28.9 24.3 1.4 17 13.4 SSW 15 17 8 9 1008.2 - 0.0
25/09:00pm 30.8 25.4 1.2 15 14.6 SSW 19 24 10 13 1007.7 1007.4 0.0
25/08:30pm 32.0 26.5 2.1 15 15.0 SSW 20 24 11 13 1007.4 - 0.0
25/08:00pm 32.9 27.4 1.9 14 15.6 SSW 20 26 11 14 1007.2 - 0.0
25/07:30pm 33.9 26.5 1.6 13 16.3 SSW 30 35 16 19 1007.0 - 0.0
25/07:00pm 35.1 27.6 1.5 12 17.0 SSW 30 37 16 20 1006.9 - 0.0
25/06:30pm 35.8 27.9 2.0 12 17.3 SW 33 39 18 21 1006.6 - 0.0
25/06:00pm 36.4 29.9 2.4 12 17.7 SSW 26 35 14 19 1006.6 1006.2 0.0
25/05:30pm 36.7 29.1 2.7 12 17.7 SSW 32 41 17 22 1006.4 - 0.0
25/05:00pm 36.8 29.6 2.8 12 17.8 SSW 30 46 16 25 1006.4 - 0.0
25/04:30pm 36.9 29.3 2.8 12 17.8 SSW 32 43 17 23 1006.8 - 0.0
25/04:00pm 36.9 29.5 1.6 11 18.1 SSW 30 41 16 22 1006.9 - 0.0
25/03:30pm 36.9 29.3 2.8 12 17.8 SSW 32 43 17 23 1007.0 - 0.0
25/03:08pm 37.2 29.6 3.1 12 18.0 SSW 32 50 17 27 1006.9 - 0.0
25/03:00pm 37.4 30.6 3.2 12 18.1 SSW 28 41 15 22 1007.0 1006.7 0.0
25/02:30pm 36.3 28.6 2.4 12 17.6 SSW 32 46 17 25 1007.2 - 0.0
25/02:00pm 36.6 29.5 3.7 13 17.4 SSW 30 41 16 22 1007.5 - 0.0
25/01:50pm 36.6 29.5 3.7 13 17.4 SSW 30 48 16 26 1007.6 - 0.0
25/01:30pm 35.9 29.7 4.2 14 16.9 SSW 26 43 14 23 1007.9 - 0.0
25/01:00pm 35.8 29.0 3.1 13 17.1 SSW 28 39 15 21 1008.3 - 0.0
25/12:30pm 35.2 29.6 3.7 14 16.6 S 22 39 12 21 1008.3 - 0.0
25/12:00pm 34.6 29.0 3.2 14 16.3 SSW 22 33 12 18 1008.5 1008.2 0.0
25/11:30am 33.6 27.8 4.3 16 15.4 S 24 35 13 19 1008.7 - 0.0
25/11:00am 33.7 27.7 5.3 17 15.2 S 26 35 14 19 1008.8 - 0.0
25/10:30am 32.9 27.1 6.2 19 14.4 S 26 35 14 19 1009.0 - 0.0
25/10:00am 31.1 25.3 6.2 21 13.3 S 26 33 14 18 1009.1 - 0.0
25/09:30am 30.4 23.9 6.3 22 12.9 S 30 35 16 19 1009.1 - 0.0
25/09:00am 29.8 23.9 5.8 22 12.7 S 26 35 14 19 1008.9 1008.6 0.0
25/08:30am 28.8 22.5 5.6 23 12.1 S 28 35 15 19 1008.6 - 0.0
25/08:00am 27.8 21.1 5.4 24 11.6 S 30 37 16 20 1008.3 - 0.0
25/07:30am 27.2 21.2 5.5 25 11.2 S 26 35 14 19 1008.2 - 0.0
25/07:00am 26.1 20.8 5.1 26 10.7 SSW 22 30 12 16 1008.0 - 0.0
25/06:30am 26.2 20.8 4.6 25 10.9 S 22 28 12 15 1007.6 - 0.0
25/06:00am 25.6 21.7 5.2 27 10.4 S 15 19 8 10 1007.0 1006.7 0.0
25/05:30am 26.2 22.6 5.2 26 10.7 S 13 17 7 9 1006.9 - 0.0
25/05:00am 27.2 22.4 4.9 24 11.4 S 19 22 10 12 1006.5 - 0.0
25/04:30am 27.7 23.1 6.5 26 11.2 S 20 30 11 16 1006.3 - 0.0
25/04:00am 27.5 23.3 7.4 28 10.8 SSW 19 20 10 11 1006.0 - 0.0
25/03:30am 26.7 24.0 9.1 33 9.7 SSW 13 15 7 8 1005.8 - 0.0
25/03:00am 27.8 24.4 9.1 31 10.3 SW 17 19 9 10 1005.7 1005.4 0.0
25/02:30am 28.1 25.5 9.4 31 10.4 SSW 13 15 7 8 1005.7 - 0.0
25/02:00am 29.8 27.6 9.3 28 11.5 S 11 13 6 7 1005.7 - 0.0
25/01:30am 30.6 28.0 9.5 27 11.9 S 13 17 7 9 1005.8 - 0.0
25/01:00am 31.2 28.6 9.4 26 12.3 S 13 17 7 9 1005.9 - 0.0
25/12:30am 31.7 28.1 9.8 26 12.5 S 19 22 10 12 1005.8 - 0.0
25/12:00am 32.3 28.5 9.8 25 12.9 SSW 20 26 11 14 1005.9 1005.6 0.0
 
Date/Time
EST
Temp
°C
App
Temp
°C
Dew
Point
Rel
Hum
%
Delta-T
°C
Wind Press
QNH
hPa
Press
MSL
hPa
Rain
since 9 am
mm
Dir
 
Spd
km/h
Gust
km/h
Spd
kts
Gust
kts
24/11:30pm 32.6 28.6 10.6 26 12.7 SSW 22 26 12 14 1005.9 - 0.0
24/11:00pm 33.4 29.5 10.7 25 13.2 SSW 22 30 12 16 1006.0 - 0.0
24/10:30pm 34.2 29.9 10.7 24 13.7 SSW 24 32 13 17 1005.6 - 0.0

Other Formats:

Comma delimited format used in spreadsheet applications
http://www.bom.gov.au/fwo/IDQ60801/IDQ60801.95482.axf

JavaScript Object Notation format (JSON) in row-major order
http://www.bom.gov.au/fwo/IDQ60801/IDQ60801.95482.json